ADDS METAR Data INFO
IDs: Format: Raw Decoded Include TAF

Data at: 0340 UTC 24 Feb 2017

METAR for:KBEA (Beeville Muni, TX, US)
Text:KBEA 240335Z AUTO 15010G15KT 10SM CLR 21/21 A2964 RMK AO2 T02070207
Temperature: 20.7°C ( 69°F)
Dewpoint: 20.7°C ( 69°F) [RH = 100%]
Pressure (altimeter):29.64 inches Hg (1003.8 mb)
Winds:from the SSE (150 degrees) at 12 MPH (10 knots; 5.1 m/s) gusting to 17 MPH (15 knots; 7.7 m/s)
Visibility:10 or more sm (16+ km)
Ceiling:at least 12,000 feet AGL
Clouds:sky clear below 12,000 feet AGL
QC Flag:automated observation with no human augmentation


Page loaded:  03:40 UTC  |   07:40 PM Pacific  |   08:40 PM Mountain  |   09:40 PM Central  |   10:40 PM Eastern

 

ADVISORIES

FORECASTS

FORECASTS

OBSERVATIONS

USER TOOLS

ABOUT US